sensor_id;sensor_type;location;lat;lon;timestamp;P1;durP1;ratioP1;P2;durP2;ratioP2
46318;SDS011;32042;50.916;2.926;2023-12-22T00:00:46;6.13;;;1.90;;
46318;SDS011;32042;50.916;2.926;2023-12-22T00:03:13;12.07;;;2.73;;
46318;SDS011;32042;50.916;2.926;2023-12-22T00:05:40;13.73;;;2.50;;
46318;SDS011;32042;50.916;2.926;2023-12-22T00:08:06;5.30;;;1.70;;
46318;SDS011;32042;50.916;2.926;2023-12-22T00:10:31;7.30;;;1.60;;
46318;SDS011;32042;50.916;2.926;2023-12-22T00:12:57;14.77;;;2.57;;
46318;SDS011;32042;50.916;2.926;2023-12-22T00:15:23;5.77;;;1.53;;
46318;SDS011;32042;50.916;2.926;2023-12-22T00:17:49;13.13;;;3.13;;
46318;SDS011;32042;50.916;2.926;2023-12-22T00:20:14;12.23;;;3.93;;
46318;SDS011;32042;50.916;2.926;2023-12-22T00:22:40;12.80;;;2.27;;
46318;SDS011;32042;50.916;2.926;2023-12-22T00:25:06;18.63;;;3.60;;
46318;SDS011;32042;50.916;2.926;2023-12-22T00:27:35;7.03;;;2.70;;
46318;SDS011;32042;50.916;2.926;2023-12-22T00:30:00;13.93;;;3.40;;
46318;SDS011;32042;50.916;2.926;2023-12-22T00:32:26;12.07;;;3.03;;
46318;SDS011;32042;50.916;2.926;2023-12-22T00:34:52;16.53;;;3.37;;
46318;SDS011;32042;50.916;2.926;2023-12-22T00:37:18;12.30;;;2.97;;
46318;SDS011;32042;50.916;2.926;2023-12-22T00:39:43;10.40;;;2.50;;
46318;SDS011;32042;50.916;2.926;2023-12-22T00:42:09;16.60;;;3.30;;
46318;SDS011;32042;50.916;2.926;2023-12-22T00:44:35;8.90;;;2.13;;
46318;SDS011;32042;50.916;2.926;2023-12-22T00:47:00;9.30;;;3.10;;
46318;SDS011;32042;50.916;2.926;2023-12-22T00:49:26;12.80;;;2.60;;
46318;SDS011;32042;50.916;2.926;2023-12-22T00:51:52;13.80;;;2.73;;
46318;SDS011;32042;50.916;2.926;2023-12-22T00:54:17;17.03;;;3.93;;
46318;SDS011;32042;50.916;2.926;2023-12-22T00:56:43;16.97;;;3.60;;
46318;SDS011;32042;50.916;2.926;2023-12-22T00:59:09;15.90;;;2.83;;
46318;SDS011;32042;50.916;2.926;2023-12-22T01:01:35;14.07;;;3.30;;
46318;SDS011;32042;50.916;2.926;2023-12-22T01:04:01;15.23;;;3.07;;
46318;SDS011;32042;50.916;2.926;2023-12-22T01:06:27;16.73;;;3.40;;
46318;SDS011;32042;50.916;2.926;2023-12-22T01:08:54;8.00;;;2.37;;
46318;SDS011;32042;50.916;2.926;2023-12-22T01:11:19;8.70;;;2.07;;
46318;SDS011;32042;50.916;2.926;2023-12-22T01:13:45;10.13;;;2.57;;
46318;SDS011;32042;50.916;2.926;2023-12-22T01:16:11;17.10;;;3.60;;
46318;SDS011;32042;50.916;2.926;2023-12-22T01:18:36;16.83;;;3.43;;
46318;SDS011;32042;50.916;2.926;2023-12-22T01:21:05;10.17;;;2.13;;
46318;SDS011;32042;50.916;2.926;2023-12-22T01:23:31;8.70;;;3.03;;
46318;SDS011;32042;50.916;2.926;2023-12-22T01:25:56;11.90;;;2.30;;
46318;SDS011;32042;50.916;2.926;2023-12-22T01:28:22;8.93;;;2.30;;
46318;SDS011;32042;50.916;2.926;2023-12-22T01:30:48;5.03;;;1.40;;
46318;SDS011;32042;50.916;2.926;2023-12-22T01:33:13;16.77;;;2.73;;
46318;SDS011;32042;50.916;2.926;2023-12-22T01:35:39;12.03;;;1.60;;
46318;SDS011;32042;50.916;2.926;2023-12-22T01:38:05;11.00;;;2.50;;
46318;SDS011;32042;50.916;2.926;2023-12-22T01:40:30;14.27;;;2.90;;
46318;SDS011;32042;50.916;2.926;2023-12-22T01:42:56;7.87;;;2.03;;
46318;SDS011;32042;50.916;2.926;2023-12-22T01:45:22;7.83;;;2.17;;
46318;SDS011;32042;50.916;2.926;2023-12-22T01:47:47;6.27;;;1.83;;
46318;SDS011;32042;50.916;2.926;2023-12-22T01:50:14;12.47;;;1.63;;
46318;SDS011;32042;50.916;2.926;2023-12-22T01:52:41;6.83;;;1.83;;
46318;SDS011;32042;50.916;2.926;2023-12-22T01:55:09;10.40;;;1.70;;
46318;SDS011;32042;50.916;2.926;2023-12-22T01:57:37;7.97;;;2.37;;
46318;SDS011;32042;50.916;2.926;2023-12-22T02:00:05;9.13;;;2.33;;
46318;SDS011;32042;50.916;2.926;2023-12-22T02:02:32;17.87;;;3.00;;
46318;SDS011;32042;50.916;2.926;2023-12-22T02:04:58;11.93;;;1.83;;
46318;SDS011;32042;50.916;2.926;2023-12-22T02:07:24;14.47;;;2.60;;
46318;SDS011;32042;50.916;2.926;2023-12-22T02:09:50;8.47;;;1.43;;
46318;SDS011;32042;50.916;2.926;2023-12-22T02:12:16;8.73;;;2.00;;
46318;SDS011;32042;50.916;2.926;2023-12-22T02:14:42;8.93;;;1.90;;
46318;SDS011;32042;50.916;2.926;2023-12-22T02:17:14;13.73;;;3.43;;
46318;SDS011;32042;50.916;2.926;2023-12-22T02:20:04;11.23;;;2.20;;
46318;SDS011;32042;50.916;2.926;2023-12-22T02:22:31;14.93;;;2.57;;
46318;SDS011;32042;50.916;2.926;2023-12-22T02:24:57;16.20;;;2.77;;
46318;SDS011;32042;50.916;2.926;2023-12-22T02:30:01;6.03;;;2.00;;
46318;SDS011;32042;50.916;2.926;2023-12-22T02:32:33;11.47;;;2.47;;
46318;SDS011;32042;50.916;2.926;2023-12-22T02:35:02;3.97;;;1.20;;
46318;SDS011;32042;50.916;2.926;2023-12-22T02:37:31;17.23;;;2.57;;
46318;SDS011;32042;50.916;2.926;2023-12-22T02:39:59;8.53;;;2.17;;
46318;SDS011;32042;50.916;2.926;2023-12-22T02:42:26;10.77;;;2.40;;
46318;SDS011;32042;50.916;2.926;2023-12-22T02:44:56;9.13;;;3.13;;
46318;SDS011;32042;50.916;2.926;2023-12-22T02:47:23;9.03;;;2.60;;
46318;SDS011;32042;50.916;2.926;2023-12-22T02:49:49;11.37;;;1.90;;
46318;SDS011;32042;50.916;2.926;2023-12-22T02:52:14;11.23;;;2.63;;
46318;SDS011;32042;50.916;2.926;2023-12-22T02:54:40;11.57;;;3.17;;
46318;SDS011;32042;50.916;2.926;2023-12-22T02:57:09;15.90;;;3.10;;
46318;SDS011;32042;50.916;2.926;2023-12-22T02:59:35;20.43;;;3.30;;
46318;SDS011;32042;50.916;2.926;2023-12-22T03:02:02;9.57;;;2.70;;
46318;SDS011;32042;50.916;2.926;2023-12-22T03:04:27;21.70;;;4.50;;
46318;SDS011;32042;50.916;2.926;2023-12-22T03:06:54;15.00;;;3.43;;
46318;SDS011;32042;50.916;2.926;2023-12-22T03:09:21;16.20;;;4.00;;
46318;SDS011;32042;50.916;2.926;2023-12-22T03:11:48;9.37;;;3.20;;
46318;SDS011;32042;50.916;2.926;2023-12-22T03:14:14;18.97;;;3.77;;
46318;SDS011;32042;50.916;2.926;2023-12-22T03:16:40;8.57;;;2.20;;
46318;SDS011;32042;50.916;2.926;2023-12-22T03:19:08;7.40;;;2.57;;
46318;SDS011;32042;50.916;2.926;2023-12-22T03:21:34;11.10;;;2.27;;
46318;SDS011;32042;50.916;2.926;2023-12-22T03:24:00;9.10;;;2.03;;
46318;SDS011;32042;50.916;2.926;2023-12-22T03:26:26;15.43;;;3.10;;
46318;SDS011;32042;50.916;2.926;2023-12-22T03:28:52;16.10;;;3.23;;
46318;SDS011;32042;50.916;2.926;2023-12-22T03:31:18;7.87;;;1.80;;
46318;SDS011;32042;50.916;2.926;2023-12-22T03:33:44;7.17;;;2.00;;
46318;SDS011;32042;50.916;2.926;2023-12-22T03:36:10;21.53;;;2.83;;
46318;SDS011;32042;50.916;2.926;2023-12-22T03:38:35;10.70;;;1.97;;
46318;SDS011;32042;50.916;2.926;2023-12-22T03:41:01;18.07;;;4.17;;
46318;SDS011;32042;50.916;2.926;2023-12-22T03:43:27;16.70;;;3.57;;
46318;SDS011;32042;50.916;2.926;2023-12-22T03:45:53;18.40;;;3.93;;
46318;SDS011;32042;50.916;2.926;2023-12-22T03:48:19;15.77;;;3.20;;
46318;SDS011;32042;50.916;2.926;2023-12-22T03:50:44;14.87;;;2.50;;
46318;SDS011;32042;50.916;2.926;2023-12-22T03:53:10;19.63;;;3.53;;
46318;SDS011;32042;50.916;2.926;2023-12-22T03:55:36;16.10;;;3.43;;
46318;SDS011;32042;50.916;2.926;2023-12-22T03:58:01;15.87;;;3.17;;
46318;SDS011;32042;50.916;2.926;2023-12-22T04:00:29;17.80;;;4.27;;
46318;SDS011;32042;50.916;2.926;2023-12-22T04:02:55;11.53;;;2.70;;
46318;SDS011;32042;50.916;2.926;2023-12-22T04:05:22;16.97;;;3.13;;
46318;SDS011;32042;50.916;2.926;2023-12-22T04:07:49;10.70;;;2.77;;
46318;SDS011;32042;50.916;2.926;2023-12-22T04:10:16;16.30;;;4.00;;
46318;SDS011;32042;50.916;2.926;2023-12-22T04:12:42;21.77;;;3.13;;
46318;SDS011;32042;50.916;2.926;2023-12-22T04:15:08;24.70;;;4.57;;
46318;SDS011;32042;50.916;2.926;2023-12-22T04:17:34;3.10;;;1.53;;
46318;SDS011;32042;50.916;2.926;2023-12-22T04:20:00;11.33;;;2.27;;
46318;SDS011;32042;50.916;2.926;2023-12-22T04:22:26;15.17;;;2.40;;
46318;SDS011;32042;50.916;2.926;2023-12-22T04:24:52;15.87;;;2.70;;
46318;SDS011;32042;50.916;2.926;2023-12-22T04:27:17;5.97;;;1.63;;
46318;SDS011;32042;50.916;2.926;2023-12-22T04:29:43;10.87;;;1.77;;
46318;SDS011;32042;50.916;2.926;2023-12-22T04:32:09;13.57;;;2.50;;
46318;SDS011;32042;50.916;2.926;2023-12-22T04:34:34;12.53;;;2.77;;
46318;SDS011;32042;50.916;2.926;2023-12-22T04:37:00;11.00;;;2.07;;
46318;SDS011;32042;50.916;2.926;2023-12-22T04:39:26;8.73;;;2.03;;
46318;SDS011;32042;50.916;2.926;2023-12-22T04:41:51;11.47;;;2.93;;
46318;SDS011;32042;50.916;2.926;2023-12-22T04:44:17;4.10;;;1.30;;
46318;SDS011;32042;50.916;2.926;2023-12-22T04:46:43;8.27;;;2.53;;
46318;SDS011;32042;50.916;2.926;2023-12-22T04:49:09;7.33;;;1.87;;
46318;SDS011;32042;50.916;2.926;2023-12-22T04:51:34;11.33;;;2.50;;
46318;SDS011;32042;50.916;2.926;2023-12-22T04:54:00;6.90;;;1.60;;
46318;SDS011;32042;50.916;2.926;2023-12-22T04:56:26;7.70;;;1.33;;
46318;SDS011;32042;50.916;2.926;2023-12-22T04:58:51;4.43;;;1.30;;
46318;SDS011;32042;50.916;2.926;2023-12-22T05:01:17;9.97;;;1.83;;
46318;SDS011;32042;50.916;2.926;2023-12-22T05:03:44;8.00;;;1.67;;
46318;SDS011;32042;50.916;2.926;2023-12-22T05:06:10;7.50;;;1.40;;
46318;SDS011;32042;50.916;2.926;2023-12-22T05:08:38;5.80;;;1.23;;
46318;SDS011;32042;50.916;2.926;2023-12-22T05:11:04;6.57;;;1.70;;
46318;SDS011;32042;50.916;2.926;2023-12-22T05:13:30;7.57;;;1.20;;
46318;SDS011;32042;50.916;2.926;2023-12-22T05:15:55;5.63;;;1.53;;
46318;SDS011;32042;50.916;2.926;2023-12-22T05:18:21;6.67;;;1.60;;
46318;SDS011;32042;50.916;2.926;2023-12-22T05:20:47;2.53;;;1.20;;
46318;SDS011;32042;50.916;2.926;2023-12-22T05:23:12;3.57;;;1.10;;
46318;SDS011;32042;50.916;2.926;2023-12-22T05:25:38;7.13;;;2.17;;
46318;SDS011;32042;50.916;2.926;2023-12-22T05:28:05;8.40;;;1.63;;
46318;SDS011;32042;50.916;2.926;2023-12-22T05:30:31;8.17;;;1.77;;
46318;SDS011;32042;50.916;2.926;2023-12-22T05:32:57;0.93;;;0.67;;
46318;SDS011;32042;50.916;2.926;2023-12-22T05:35:22;3.30;;;0.87;;
46318;SDS011;32042;50.916;2.926;2023-12-22T05:37:48;4.20;;;1.00;;
46318;SDS011;32042;50.916;2.926;2023-12-22T05:40:14;4.33;;;0.90;;
46318;SDS011;32042;50.916;2.926;2023-12-22T05:42:40;3.60;;;1.30;;
46318;SDS011;32042;50.916;2.926;2023-12-22T05:45:07;2.87;;;0.73;;
46318;SDS011;32042;50.916;2.926;2023-12-22T05:47:36;4.87;;;1.17;;
46318;SDS011;32042;50.916;2.926;2023-12-22T05:50:02;4.57;;;0.97;;
46318;SDS011;32042;50.916;2.926;2023-12-22T05:52:28;3.13;;;1.10;;
46318;SDS011;32042;50.916;2.926;2023-12-22T05:54:54;1.77;;;0.60;;
46318;SDS011;32042;50.916;2.926;2023-12-22T05:57:19;3.90;;;0.97;;
46318;SDS011;32042;50.916;2.926;2023-12-22T05:59:45;1.97;;;0.70;;
46318;SDS011;32042;50.916;2.926;2023-12-22T06:02:11;3.63;;;0.83;;
46318;SDS011;32042;50.916;2.926;2023-12-22T06:04:38;4.23;;;1.30;;
46318;SDS011;32042;50.916;2.926;2023-12-22T06:07:04;3.33;;;0.50;;
46318;SDS011;32042;50.916;2.926;2023-12-22T06:09:32;0.93;;;0.53;;
46318;SDS011;32042;50.916;2.926;2023-12-22T06:11:58;7.37;;;1.10;;
46318;SDS011;32042;50.916;2.926;2023-12-22T06:14:23;4.03;;;0.90;;
46318;SDS011;32042;50.916;2.926;2023-12-22T06:16:49;2.53;;;0.80;;
46318;SDS011;32042;50.916;2.926;2023-12-22T06:19:16;4.70;;;1.00;;
46318;SDS011;32042;50.916;2.926;2023-12-22T06:21:41;2.70;;;0.97;;
46318;SDS011;32042;50.916;2.926;2023-12-22T06:24:07;3.77;;;0.40;;
46318;SDS011;32042;50.916;2.926;2023-12-22T06:26:33;3.20;;;0.63;;
46318;SDS011;32042;50.916;2.926;2023-12-22T06:28:59;5.43;;;1.10;;
46318;SDS011;32042;50.916;2.926;2023-12-22T06:31:25;2.83;;;0.70;;
46318;SDS011;32042;50.916;2.926;2023-12-22T06:33:51;4.07;;;1.13;;
46318;SDS011;32042;50.916;2.926;2023-12-22T06:36:21;2.43;;;0.90;;
46318;SDS011;32042;50.916;2.926;2023-12-22T06:38:48;4.17;;;0.90;;
46318;SDS011;32042;50.916;2.926;2023-12-22T06:41:28;3.80;;;1.50;;
46318;SDS011;32042;50.916;2.926;2023-12-22T06:43:56;8.57;;;1.97;;
46318;SDS011;32042;50.916;2.926;2023-12-22T06:46:24;4.13;;;1.10;;
46318;SDS011;32042;50.916;2.926;2023-12-22T06:48:54;4.23;;;0.70;;
46318;SDS011;32042;50.916;2.926;2023-12-22T06:53:55;7.97;;;1.83;;
46318;SDS011;32042;50.916;2.926;2023-12-22T06:56:24;6.53;;;1.20;;
46318;SDS011;32042;50.916;2.926;2023-12-22T06:58:52;1.17;;;0.80;;
46318;SDS011;32042;50.916;2.926;2023-12-22T07:01:19;6.80;;;1.67;;
46318;SDS011;32042;50.916;2.926;2023-12-22T07:03:46;1.77;;;0.80;;
46318;SDS011;32042;50.916;2.926;2023-12-22T07:06:16;6.53;;;1.23;;
46318;SDS011;32042;50.916;2.926;2023-12-22T07:08:45;3.53;;;0.50;;
46318;SDS011;32042;50.916;2.926;2023-12-22T07:11:19;2.60;;;0.80;;
46318;SDS011;32042;50.916;2.926;2023-12-22T07:13:45;3.00;;;1.00;;
46318;SDS011;32042;50.916;2.926;2023-12-22T07:16:11;5.80;;;1.10;;
46318;SDS011;32042;50.916;2.926;2023-12-22T07:18:37;6.93;;;1.10;;
46318;SDS011;32042;50.916;2.926;2023-12-22T07:21:03;13.50;;;1.43;;
46318;SDS011;32042;50.916;2.926;2023-12-22T07:23:29;4.43;;;1.08;;
46318;SDS011;32042;50.916;2.926;2023-12-22T07:25:54;5.40;;;1.10;;
46318;SDS011;32042;50.916;2.926;2023-12-22T07:28:20;4.37;;;1.70;;
46318;SDS011;32042;50.916;2.926;2023-12-22T07:30:46;3.20;;;0.80;;
46318;SDS011;32042;50.916;2.926;2023-12-22T07:33:12;6.53;;;1.20;;
46318;SDS011;32042;50.916;2.926;2023-12-22T07:35:37;2.83;;;0.97;;
46318;SDS011;32042;50.916;2.926;2023-12-22T07:38:03;3.17;;;0.63;;
46318;SDS011;32042;50.916;2.926;2023-12-22T07:40:29;6.43;;;0.83;;
46318;SDS011;32042;50.916;2.926;2023-12-22T07:42:57;6.10;;;0.73;;
46318;SDS011;32042;50.916;2.926;2023-12-22T07:45:23;7.67;;;1.10;;
46318;SDS011;32042;50.916;2.926;2023-12-22T07:47:49;8.00;;;1.27;;
46318;SDS011;32042;50.916;2.926;2023-12-22T07:50:14;2.70;;;1.10;;
46318;SDS011;32042;50.916;2.926;2023-12-22T07:52:40;4.47;;;0.80;;
46318;SDS011;32042;50.916;2.926;2023-12-22T07:55:06;2.63;;;1.03;;
46318;SDS011;32042;50.916;2.926;2023-12-22T07:57:35;5.83;;;0.90;;
46318;SDS011;32042;50.916;2.926;2023-12-22T08:00:01;3.43;;;0.70;;
46318;SDS011;32042;50.916;2.926;2023-12-22T08:02:28;2.67;;;0.80;;
46318;SDS011;32042;50.916;2.926;2023-12-22T08:04:54;3.67;;;0.93;;
46318;SDS011;32042;50.916;2.926;2023-12-22T08:07:20;1.87;;;0.67;;
46318;SDS011;32042;50.916;2.926;2023-12-22T08:09:46;3.33;;;0.93;;
46318;SDS011;32042;50.916;2.926;2023-12-22T08:12:11;3.17;;;0.83;;
46318;SDS011;32042;50.916;2.926;2023-12-22T08:14:37;0.97;;;0.50;;
46318;SDS011;32042;50.916;2.926;2023-12-22T08:17:03;2.47;;;0.70;;
46318;SDS011;32042;50.916;2.926;2023-12-22T08:19:30;2.00;;;0.87;;
46318;SDS011;32042;50.916;2.926;2023-12-22T08:21:56;1.47;;;0.50;;
46318;SDS011;32042;50.916;2.926;2023-12-22T08:24:21;1.43;;;0.30;;
46318;SDS011;32042;50.916;2.926;2023-12-22T08:26:47;6.53;;;0.70;;
46318;SDS011;32042;50.916;2.926;2023-12-22T08:29:13;0.90;;;0.50;;
46318;SDS011;32042;50.916;2.926;2023-12-22T08:31:40;6.20;;;0.70;;
46318;SDS011;32042;50.916;2.926;2023-12-22T08:34:06;3.40;;;0.80;;
46318;SDS011;32042;50.916;2.926;2023-12-22T08:36:32;5.33;;;1.63;;
46318;SDS011;32042;50.916;2.926;2023-12-22T08:38:58;3.13;;;0.70;;
46318;SDS011;32042;50.916;2.926;2023-12-22T08:41:24;2.03;;;0.87;;
46318;SDS011;32042;50.916;2.926;2023-12-22T08:43:50;3.87;;;0.83;;
46318;SDS011;32042;50.916;2.926;2023-12-22T08:46:15;5.07;;;1.07;;
46318;SDS011;32042;50.916;2.926;2023-12-22T08:48:41;2.43;;;0.77;;
46318;SDS011;32042;50.916;2.926;2023-12-22T08:51:07;1.77;;;0.90;;
46318;SDS011;32042;50.916;2.926;2023-12-22T08:53:33;1.63;;;0.60;;
46318;SDS011;32042;50.916;2.926;2023-12-22T08:56:02;4.33;;;0.40;;
46318;SDS011;32042;50.916;2.926;2023-12-22T08:58:28;2.03;;;0.70;;
46318;SDS011;32042;50.916;2.926;2023-12-22T09:00:54;5.10;;;0.70;;
46318;SDS011;32042;50.916;2.926;2023-12-22T09:03:20;3.53;;;0.70;;
46318;SDS011;32042;50.916;2.926;2023-12-22T09:05:46;1.87;;;0.70;;
46318;SDS011;32042;50.916;2.926;2023-12-22T09:08:14;2.40;;;0.70;;
46318;SDS011;32042;50.916;2.926;2023-12-22T09:10:40;1.20;;;0.63;;
46318;SDS011;32042;50.916;2.926;2023-12-22T09:13:05;2.93;;;0.63;;
46318;SDS011;32042;50.916;2.926;2023-12-22T09:15:31;0.27;;;0.13;;
46318;SDS011;32042;50.916;2.926;2023-12-22T09:17:57;4.77;;;0.87;;
46318;SDS011;32042;50.916;2.926;2023-12-22T09:20:22;0.87;;;0.37;;
46318;SDS011;32042;50.916;2.926;2023-12-22T09:22:48;1.97;;;0.50;;
46318;SDS011;32042;50.916;2.926;2023-12-22T09:25:14;1.37;;;0.33;;
46318;SDS011;32042;50.916;2.926;2023-12-22T09:27:40;0.67;;;0.40;;
46318;SDS011;32042;50.916;2.926;2023-12-22T09:30:05;2.83;;;1.00;;
46318;SDS011;32042;50.916;2.926;2023-12-22T09:32:32;0.73;;;0.40;;
46318;SDS011;32042;50.916;2.926;2023-12-22T09:34:58;1.50;;;0.40;;
46318;SDS011;32042;50.916;2.926;2023-12-22T09:37:25;1.57;;;0.70;;
46318;SDS011;32042;50.916;2.926;2023-12-22T09:39:51;2.07;;;0.67;;
46318;SDS011;32042;50.916;2.926;2023-12-22T09:42:17;3.17;;;0.77;;
46318;SDS011;32042;50.916;2.926;2023-12-22T09:44:44;1.70;;;0.97;;
46318;SDS011;32042;50.916;2.926;2023-12-22T09:47:13;2.20;;;0.60;;
46318;SDS011;32042;50.916;2.926;2023-12-22T09:49:42;1.87;;;0.80;;
46318;SDS011;32042;50.916;2.926;2023-12-22T09:52:09;3.70;;;0.60;;
46318;SDS011;32042;50.916;2.926;2023-12-22T09:54:37;0.40;;;0.40;;
46318;SDS011;32042;50.916;2.926;2023-12-22T09:57:03;3.37;;;0.70;;
46318;SDS011;32042;50.916;2.926;2023-12-22T09:59:30;3.90;;;0.60;;
46318;SDS011;32042;50.916;2.926;2023-12-22T10:01:58;2.10;;;0.63;;
46318;SDS011;32042;50.916;2.926;2023-12-22T10:04:27;3.20;;;0.60;;
46318;SDS011;32042;50.916;2.926;2023-12-22T10:06:54;1.00;;;0.57;;
46318;SDS011;32042;50.916;2.926;2023-12-22T10:09:25;1.67;;;0.60;;
46318;SDS011;32042;50.916;2.926;2023-12-22T10:11:52;0.70;;;0.30;;
46318;SDS011;32042;50.916;2.926;2023-12-22T10:14:18;1.97;;;0.60;;
46318;SDS011;32042;50.916;2.926;2023-12-22T10:16:51;3.60;;;0.70;;
46318;SDS011;32042;50.916;2.926;2023-12-22T10:19:18;1.10;;;0.40;;
46318;SDS011;32042;50.916;2.926;2023-12-22T10:21:45;1.90;;;0.67;;
46318;SDS011;32042;50.916;2.926;2023-12-22T10:27:07;0.53;;;0.30;;
46318;SDS011;32042;50.916;2.926;2023-12-22T10:29:34;1.63;;;0.33;;
46318;SDS011;32042;50.916;2.926;2023-12-22T10:32:01;0.20;;;0.10;;
46318;SDS011;32042;50.916;2.926;2023-12-22T10:34:28;3.13;;;0.63;;
46318;SDS011;32042;50.916;2.926;2023-12-22T10:36:54;1.03;;;0.40;;
46318;SDS011;32042;50.916;2.926;2023-12-22T10:39:20;0.77;;;0.40;;
46318;SDS011;32042;50.916;2.926;2023-12-22T10:41:48;3.33;;;0.77;;
46318;SDS011;32042;50.916;2.926;2023-12-22T10:44:14;4.03;;;0.60;;
46318;SDS011;32042;50.916;2.926;2023-12-22T10:46:42;2.63;;;0.70;;
46318;SDS011;32042;50.916;2.926;2023-12-22T10:49:08;1.60;;;0.63;;
46318;SDS011;32042;50.916;2.926;2023-12-22T10:51:34;2.17;;;0.67;;
46318;SDS011;32042;50.916;2.926;2023-12-22T10:54:00;2.80;;;0.40;;
46318;SDS011;32042;50.916;2.926;2023-12-22T10:56:26;1.70;;;0.30;;
46318;SDS011;32042;50.916;2.926;2023-12-22T10:58:53;0.43;;;0.30;;
46318;SDS011;32042;50.916;2.926;2023-12-22T11:01:20;0.57;;;0.40;;
46318;SDS011;32042;50.916;2.926;2023-12-22T11:03:48;0.53;;;0.27;;
46318;SDS011;32042;50.916;2.926;2023-12-22T11:06:16;0.67;;;0.23;;
46318;SDS011;32042;50.916;2.926;2023-12-22T11:08:45;3.23;;;0.30;;
46318;SDS011;32042;50.916;2.926;2023-12-22T11:11:20;1.07;;;0.10;;
46318;SDS011;32042;50.916;2.926;2023-12-22T11:13:56;1.37;;;0.40;;
46318;SDS011;32042;50.916;2.926;2023-12-22T11:16:23;1.77;;;0.10;;
46318;SDS011;32042;50.916;2.926;2023-12-22T11:18:51;5.37;;;0.67;;
46318;SDS011;32042;50.916;2.926;2023-12-22T11:21:22;0.90;;;0.53;;
46318;SDS011;32042;50.916;2.926;2023-12-22T11:23:49;2.20;;;0.40;;
46318;SDS011;32042;50.916;2.926;2023-12-22T11:26:17;1.73;;;1.10;;
46318;SDS011;32042;50.916;2.926;2023-12-22T11:28:47;0.43;;;0.43;;
46318;SDS011;32042;50.916;2.926;2023-12-22T11:31:16;1.83;;;0.77;;
46318;SDS011;32042;50.916;2.926;2023-12-22T11:33:49;1.60;;;0.53;;
46318;SDS011;32042;50.916;2.926;2023-12-22T11:36:17;1.93;;;0.43;;
46318;SDS011;32042;50.916;2.926;2023-12-22T11:38:43;1.60;;;0.80;;
46318;SDS011;32042;50.916;2.926;2023-12-22T11:41:21;3.17;;;0.37;;
46318;SDS011;32042;50.916;2.926;2023-12-22T11:43:49;1.33;;;0.53;;
46318;SDS011;32042;50.916;2.926;2023-12-22T11:46:17;0.40;;;0.37;;
46318;SDS011;32042;50.916;2.926;2023-12-22T11:48:48;0.40;;;0.37;;
46318;SDS011;32042;50.916;2.926;2023-12-22T11:51:16;0.93;;;0.40;;
46318;SDS011;32042;50.916;2.926;2023-12-22T11:53:42;2.53;;;0.53;;
46318;SDS011;32042;50.916;2.926;2023-12-22T11:56:09;1.80;;;0.70;;
46318;SDS011;32042;50.916;2.926;2023-12-22T12:01:16;6.07;;;0.80;;
46318;SDS011;32042;50.916;2.926;2023-12-22T12:03:53;2.20;;;0.70;;
46318;SDS011;32042;50.916;2.926;2023-12-22T12:06:25;0.40;;;0.30;;
46318;SDS011;32042;50.916;2.926;2023-12-22T12:08:59;0.83;;;0.30;;
46318;SDS011;32042;50.916;2.926;2023-12-22T12:14:22;0.90;;;0.50;;
46318;SDS011;32042;50.916;2.926;2023-12-22T12:16:56;2.13;;;0.50;;
46318;SDS011;32042;50.916;2.926;2023-12-22T12:19:30;3.07;;;0.50;;
46318;SDS011;32042;50.916;2.926;2023-12-22T12:21:58;0.70;;;0.30;;
46318;SDS011;32042;50.916;2.926;2023-12-22T12:24:23;1.23;;;0.33;;
46318;SDS011;32042;50.916;2.926;2023-12-22T12:26:51;0.87;;;0.30;;
46318;SDS011;32042;50.916;2.926;2023-12-22T12:29:17;2.93;;;0.77;;
46318;SDS011;32042;50.916;2.926;2023-12-22T12:31:43;4.03;;;0.60;;
46318;SDS011;32042;50.916;2.926;2023-12-22T12:34:11;3.30;;;1.00;;
46318;SDS011;32042;50.916;2.926;2023-12-22T12:36:39;2.03;;;0.60;;
46318;SDS011;32042;50.916;2.926;2023-12-22T12:41:40;2.07;;;0.60;;
46318;SDS011;32042;50.916;2.926;2023-12-22T12:44:06;3.73;;;0.40;;
46318;SDS011;32042;50.916;2.926;2023-12-22T12:46:34;3.40;;;0.93;;
46318;SDS011;32042;50.916;2.926;2023-12-22T12:49:07;1.73;;;0.80;;
46318;SDS011;32042;50.916;2.926;2023-12-22T12:51:42;0.70;;;0.40;;
46318;SDS011;32042;50.916;2.926;2023-12-22T12:54:10;2.00;;;0.53;;
46318;SDS011;32042;50.916;2.926;2023-12-22T12:56:39;3.80;;;0.60;;
46318;SDS011;32042;50.916;2.926;2023-12-22T12:59:12;2.83;;;0.63;;
46318;SDS011;32042;50.916;2.926;2023-12-22T13:01:39;1.73;;;0.30;;
46318;SDS011;32042;50.916;2.926;2023-12-22T13:04:09;1.47;;;0.60;;
46318;SDS011;32042;50.916;2.926;2023-12-22T13:06:42;2.83;;;0.43;;
46318;SDS011;32042;50.916;2.926;2023-12-22T13:09:15;1.20;;;0.60;;
46318;SDS011;32042;50.916;2.926;2023-12-22T13:11:42;4.07;;;0.53;;
46318;SDS011;32042;50.916;2.926;2023-12-22T13:14:09;1.30;;;0.60;;
46318;SDS011;32042;50.916;2.926;2023-12-22T13:16:35;0.77;;;0.50;;
46318;SDS011;32042;50.916;2.926;2023-12-22T13:19:02;2.37;;;0.70;;
46318;SDS011;32042;50.916;2.926;2023-12-22T13:21:28;1.83;;;0.60;;
46318;SDS011;32042;50.916;2.926;2023-12-22T13:26:36;2.00;;;1.00;;
46318;SDS011;32042;50.916;2.926;2023-12-22T13:29:03;1.17;;;0.37;;
46318;SDS011;32042;50.916;2.926;2023-12-22T13:31:33;1.93;;;0.53;;
46318;SDS011;32042;50.916;2.926;2023-12-22T13:34:01;1.43;;;0.43;;
46318;SDS011;32042;50.916;2.926;2023-12-22T13:36:27;6.27;;;2.67;;
46318;SDS011;32042;50.916;2.926;2023-12-22T13:38:58;1.47;;;0.57;;
46318;SDS011;32042;50.916;2.926;2023-12-22T13:41:24;2.77;;;1.07;;
46318;SDS011;32042;50.916;2.926;2023-12-22T13:43:50;3.73;;;0.83;;
46318;SDS011;32042;50.916;2.926;2023-12-22T13:46:15;5.10;;;1.00;;
46318;SDS011;32042;50.916;2.926;2023-12-22T13:48:42;1.50;;;0.60;;
46318;SDS011;32042;50.916;2.926;2023-12-22T13:51:08;1.03;;;0.50;;
46318;SDS011;32042;50.916;2.926;2023-12-22T13:53:35;6.57;;;1.40;;
46318;SDS011;32042;50.916;2.926;2023-12-22T13:56:01;5.53;;;2.90;;
46318;SDS011;32042;50.916;2.926;2023-12-22T13:58:27;2.60;;;0.83;;
46318;SDS011;32042;50.916;2.926;2023-12-22T14:00:53;4.00;;;1.13;;
46318;SDS011;32042;50.916;2.926;2023-12-22T14:03:20;3.13;;;1.20;;
46318;SDS011;32042;50.916;2.926;2023-12-22T14:05:47;1.03;;;0.33;;
46318;SDS011;32042;50.916;2.926;2023-12-22T14:08:15;7.00;;;0.90;;
46318;SDS011;32042;50.916;2.926;2023-12-22T14:10:48;2.77;;;1.10;;
46318;SDS011;32042;50.916;2.926;2023-12-22T14:13:14;3.57;;;1.20;;
46318;SDS011;32042;50.916;2.926;2023-12-22T14:15:41;2.17;;;0.53;;
46318;SDS011;32042;50.916;2.926;2023-12-22T14:18:08;2.27;;;0.80;;
46318;SDS011;32042;50.916;2.926;2023-12-22T14:20:34;3.47;;;1.40;;
46318;SDS011;32042;50.916;2.926;2023-12-22T14:23:00;3.23;;;1.00;;
46318;SDS011;32042;50.916;2.926;2023-12-22T14:25:27;2.97;;;0.77;;
46318;SDS011;32042;50.916;2.926;2023-12-22T14:27:53;5.13;;;0.93;;
46318;SDS011;32042;50.916;2.926;2023-12-22T14:30:22;1.03;;;0.50;;
46318;SDS011;32042;50.916;2.926;2023-12-22T14:32:49;6.30;;;2.37;;
46318;SDS011;32042;50.916;2.926;2023-12-22T14:35:15;4.30;;;2.83;;
46318;SDS011;32042;50.916;2.926;2023-12-22T14:37:41;2.70;;;0.80;;
46318;SDS011;32042;50.916;2.926;2023-12-22T14:40:08;2.63;;;0.90;;
46318;SDS011;32042;50.916;2.926;2023-12-22T14:42:34;4.80;;;0.93;;
46318;SDS011;32042;50.916;2.926;2023-12-22T14:45:00;2.93;;;0.73;;
46318;SDS011;32042;50.916;2.926;2023-12-22T14:47:27;3.77;;;1.40;;
46318;SDS011;32042;50.916;2.926;2023-12-22T14:49:53;2.30;;;0.70;;
46318;SDS011;32042;50.916;2.926;2023-12-22T14:52:19;3.17;;;0.90;;
46318;SDS011;32042;50.916;2.926;2023-12-22T14:54:45;2.83;;;0.80;;
46318;SDS011;32042;50.916;2.926;2023-12-22T14:57:11;3.83;;;0.60;;
46318;SDS011;32042;50.916;2.926;2023-12-22T14:59:39;3.67;;;1.17;;
46318;SDS011;32042;50.916;2.926;2023-12-22T15:02:05;3.80;;;0.87;;